Time;durP1;ratioP1;P1;durP2;ratioP2;P2;SDS_P1;SDS_P2;PMS_P1;PMS_P2;Temp;Humidity;BMP_temperature;BMP_pressure;BME280_temperature;BME280_humidity;BME280_pressure;Samples;Min_cycle;Max_cycle;Signal;HPM_P1;HPM_P2
2022/02/26 00:02:25;;;;;;;6.45;3.00;;;3.80;99.90;;;;;;5100435;28;20058;-67
2022/02/26 00:04:51;;;;;;;5.50;2.60;;;3.80;99.90;;;;;;5102580;28;20024;-68
2022/02/26 00:07:17;;;;;;;6.57;3.30;;;3.80;99.90;;;;;;5104424;28;20472;-68
2022/02/26 00:09:43;;;;;;;5.15;3.10;;;3.90;99.90;;;;;;5123117;28;20080;-68
2022/02/26 00:12:09;;;;;;;7.97;3.47;;;3.90;99.90;;;;;;5119858;28;20040;-68
2022/02/26 00:14:35;;;;;;;5.38;2.47;;;3.80;99.90;;;;;;5100046;28;20023;-68
2022/02/26 00:17:01;;;;;;;6.85;3.55;;;3.60;99.90;;;;;;5116381;28;20071;-68
2022/02/26 00:19:26;;;;;;;6.17;2.90;;;3.50;99.90;;;;;;5115744;28;20460;-68
2022/02/26 00:21:53;;;;;;;7.77;3.33;;;3.50;99.90;;;;;;5097341;28;20261;-67
2022/02/26 00:24:18;;;;;;;;;;;3.40;99.90;;;;;;5116526;28;20024;-67
2022/02/26 00:26:44;;;;;;;6.68;3.30;;;3.60;99.90;;;;;;5116587;28;20245;-67
2022/02/26 00:29:10;;;;;;;6.63;3.73;;;3.50;99.90;;;;;;5116877;28;20042;-67
2022/02/26 00:31:35;;;;;;;7.03;3.47;;;3.50;99.90;;;;;;5116195;28;20281;-67
2022/02/26 00:34:01;;;;;;;9.00;3.23;;;3.40;99.90;;;;;;5115937;28;20529;-67
2022/02/26 00:36:27;;;;;;;6.23;3.37;;;3.40;99.90;;;;;;5097506;28;20373;-68
2022/02/26 00:38:54;;;;;;;9.67;3.67;;;3.50;99.90;;;;;;5115709;28;20058;-68
2022/02/26 00:41:19;;;;;;;7.30;3.72;;;3.50;99.90;;;;;;5097278;28;20034;-67
2022/02/26 00:43:45;;;;;;;8.27;3.63;;;3.40;99.90;;;;;;5115664;28;20032;-66
2022/02/26 00:46:11;;;;;;;10.68;3.60;;;3.40;99.90;;;;;;5097328;28;20028;-66
2022/02/26 00:51:21;;;;;;;10.57;3.30;;;3.60;99.90;;;;;;5115993;28;20035;-67
2022/02/26 00:53:47;;;;;;;7.67;3.47;;;3.60;99.90;;;;;;5096824;28;20020;-67
2022/02/26 00:56:13;;;;;;;8.97;3.83;;;3.50;99.90;;;;;;5097025;28;20295;-67
2022/02/26 00:58:38;;;;;;;6.13;3.85;;;3.50;99.90;;;;;;5097059;28;20106;-67
2022/02/26 01:01:04;;;;;;;8.20;3.50;;;3.50;99.90;;;;;;5096970;28;20507;-67
2022/02/26 01:03:30;;;;;;;8.97;3.80;;;3.60;99.90;;;;;;5115149;28;20107;-67
2022/02/26 01:05:55;;;;;;;8.03;3.50;;;3.70;99.90;;;;;;5115123;28;20023;-67
2022/02/26 01:08:21;;;;;;;6.10;3.40;;;3.60;99.90;;;;;;5114968;28;20467;-67
2022/02/26 01:10:47;;;;;;;7.03;3.70;;;3.60;99.90;;;;;;5115112;28;20451;-68
2022/02/26 01:13:12;;;;;;;6.50;3.03;;;3.70;99.90;;;;;;5114668;28;20031;-67
2022/02/26 01:15:38;;;;;;;6.67;3.63;;;3.60;99.90;;;;;;5115217;28;20047;-67
2022/02/26 01:18:04;;;;;;;6.57;3.77;;;3.60;99.90;;;;;;5115029;28;20020;-67
2022/02/26 01:20:29;;;;;;;7.03;3.57;;;3.60;99.90;;;;;;5115354;28;20464;-67
2022/02/26 01:22:55;;;;;;;9.03;3.73;;;3.60;99.90;;;;;;5114654;28;20028;-68
2022/02/26 01:25:20;;;;;;;9.50;4.03;;;3.70;99.90;;;;;;5114854;28;20031;-68
2022/02/26 01:27:46;;;;;;;9.87;4.10;;;3.60;99.90;;;;;;5096260;28;20365;-67
2022/02/26 01:30:12;;;;;;;9.67;3.80;;;3.70;99.90;;;;;;5114590;28;20031;-67
2022/02/26 01:32:41;;;;;;;10.20;3.75;;;3.80;99.90;;;;;;5114407;28;20100;-67
2022/02/26 01:35:07;;;;;;;6.70;3.95;;;3.70;99.90;;;;;;5114726;28;20065;-67
2022/02/26 01:37:33;;;;;;;6.50;4.30;;;3.70;99.90;;;;;;5114387;28;20460;-67
2022/02/26 01:39:59;;;;;;;8.38;3.67;;;3.70;99.90;;;;;;5096044;28;20115;-67
2022/02/26 01:42:24;;;;;;;10.80;4.13;;;3.70;99.90;;;;;;5114181;28;20062;-68
2022/02/26 01:44:51;;;;;;;6.47;3.57;;;3.70;99.90;;;;;;5095947;28;20035;-67
2022/02/26 01:47:17;;;;;;;6.60;3.63;;;3.80;99.90;;;;;;5114311;28;20024;-67
2022/02/26 01:49:43;;;;;;;7.70;3.65;;;3.90;99.90;;;;;;5095738;28;20088;-67
2022/02/26 01:52:09;;;;;;;7.70;3.50;;;4.00;99.90;;;;;;5096094;28;20422;-67
2022/02/26 01:54:36;;;;;;;8.18;3.80;;;4.00;99.90;;;;;;5096577;28;20107;-67
2022/02/26 01:57:02;;;;;;;7.13;3.60;;;3.90;99.90;;;;;;5115117;28;20027;-67
2022/02/26 01:59:28;;;;;;;5.50;3.47;;;3.80;99.90;;;;;;5114471;28;20019;-68
2022/02/26 02:01:54;;;;;;;5.50;4.00;;;3.90;99.90;;;;;;5115372;28;20024;-66
2022/02/26 02:04:20;;;;;;;6.47;3.38;;;4.00;99.90;;;;;;5115063;28;20066;-66
2022/02/26 02:06:45;;;;;;;8.38;4.20;;;4.00;99.90;;;;;;5096827;28;20109;-67
2022/02/26 02:09:12;;;;;;;7.67;4.10;;;4.00;99.90;;;;;;5114949;28;20035;-67
2022/02/26 02:11:37;;;;;;;6.78;3.97;;;3.90;99.90;;;;;;5095874;28;20464;-67
2022/02/26 02:14:04;;;;;;;7.70;4.13;;;3.90;99.90;;;;;;5152080;22;20070;-62
2022/02/26 02:16:30;;;;;;;9.35;3.70;;;4.00;99.90;;;;;;5134484;27;20543;-64
2022/02/26 02:18:56;;;;;;;8.47;4.33;;;4.00;99.90;;;;;;5134732;27;20027;-64
2022/02/26 02:21:22;;;;;;;7.77;3.83;;;4.10;99.90;;;;;;5134217;27;20031;-64
2022/02/26 02:23:48;;;;;;;6.05;3.55;;;4.10;99.90;;;;;;5134167;27;20416;-64
2022/02/26 02:26:17;;;;;;;8.05;3.90;;;4.00;99.90;;;;;;5134296;27;20027;-64
2022/02/26 02:28:43;;;;;;;9.13;3.83;;;4.10;99.90;;;;;;5134220;27;20023;-64
2022/02/26 02:31:08;;;;;;;5.73;3.87;;;4.00;99.90;;;;;;5134131;27;20550;-65
2022/02/26 02:33:43;;;;;;;7.77;3.93;;;4.10;99.90;;;;;;5133068;28;20364;-65
2022/02/26 02:36:09;;;;;;;8.45;4.35;;;4.00;99.90;;;;;;5132996;28;20023;-65
2022/02/26 02:38:35;;;;;;;7.70;4.50;;;3.90;99.90;;;;;;5134198;27;20390;-65
2022/02/26 02:41:00;;;;;;;7.97;4.97;;;3.90;99.90;;;;;;5134098;27;20027;-65
2022/02/26 02:43:26;;;;;;;9.10;4.07;;;3.90;99.90;;;;;;5135475;27;20039;-64
2022/02/26 02:45:52;;;;;;;6.43;3.87;;;3.90;99.90;;;;;;5138523;27;20030;-66
2022/02/26 02:48:17;;;;;;;5.50;3.80;;;3.80;99.90;;;;;;5138525;27;20027;-65
2022/02/26 02:50:43;;;;;;;11.27;4.20;;;3.70;99.90;;;;;;5138054;27;20268;-65
2022/02/26 02:53:08;;;;;;;8.37;4.03;;;3.70;99.90;;;;;;5138112;27;20375;-65
2022/02/26 02:55:34;;;;;;;8.53;4.07;;;3.60;99.90;;;;;;5138063;27;20095;-65
2022/02/26 02:58:00;;;;;;;8.43;4.67;;;3.50;99.90;;;;;;5141656;27;20027;-65
2022/02/26 03:00:27;;;;;;;7.80;4.88;;;3.30;99.90;;;;;;5145356;27;20265;-65
2022/02/26 03:02:53;;;;;;;9.32;4.65;;;3.20;99.90;;;;;;5142912;27;20475;-65
2022/02/26 03:05:21;;;;;;;13.38;5.50;;;3.20;99.90;;;;;;5137131;27;20374;-65
2022/02/26 03:07:47;;;;;;;13.85;5.60;;;3.10;99.90;;;;;;5137861;27;20023;-65
2022/02/26 03:10:13;;;;;;;;;;;3.10;99.90;;;;;;5138787;27;20039;-65
2022/02/26 03:12:39;;;;;;;11.15;5.13;;;3.00;99.90;;;;;;5138107;27;19915;-65
2022/02/26 03:15:06;;;;;;;11.32;5.05;;;3.00;99.90;;;;;;5138239;27;20027;-64
2022/02/26 03:17:32;;;;;;;9.55;5.72;;;3.00;99.90;;;;;;5138296;27;20061;-65
2022/02/26 03:19:58;;;;;;;9.52;5.47;;;3.00;99.90;;;;;;5137716;27;20023;-65
2022/02/26 03:22:23;;;;;;;8.57;5.27;;;3.00;99.90;;;;;;5137679;27;20100;-65
2022/02/26 03:24:49;;;;;;;11.30;5.50;;;3.00;99.90;;;;;;5137860;27;20023;-65
2022/02/26 03:27:15;;;;;;;9.63;5.60;;;3.00;99.90;;;;;;5137756;27;20372;-65
2022/02/26 03:29:42;;;;;;;12.07;5.68;;;2.90;99.90;;;;;;5137857;27;20034;-65
2022/02/26 03:32:10;;;;;;;12.98;7.57;;;2.90;99.90;;;;;;5135989;27;20394;-66
2022/02/26 03:34:36;;;;;;;12.40;7.13;;;2.90;99.90;;;;;;5137569;27;20388;-65
2022/02/26 03:37:03;;;;;;;11.05;6.35;;;3.00;99.90;;;;;;5141156;27;20023;-64
2022/02/26 03:39:31;;;;;;;13.48;7.38;;;2.90;99.90;;;;;;5135929;27;20559;-64
2022/02/26 03:42:06;;;;;;;11.07;7.65;;;2.80;99.90;;;;;;5138240;27;20029;-65
2022/02/26 03:44:32;;;;;;;14.60;7.63;;;2.80;99.90;;;;;;5137788;27;20034;-64
2022/02/26 03:46:59;;;;;;;;;;;2.80;99.90;;;;;;5137858;27;20019;-64
2022/02/26 03:49:25;;;;;;;12.55;7.10;;;2.80;99.90;;;;;;5135934;27;19908;-65
2022/02/26 03:51:50;;;;;;;18.52;7.90;;;2.80;99.90;;;;;;5137178;27;20026;-65
2022/02/26 03:54:16;;;;;;;15.47;8.87;;;2.80;99.90;;;;;;5136370;27;20024;-64
2022/02/26 03:56:42;;;;;;;13.63;8.23;;;2.70;99.90;;;;;;5136504;27;20438;-65
2022/02/26 03:59:08;;;;;;;12.03;8.47;;;2.70;99.90;;;;;;5137053;27;20055;-65
2022/02/26 04:01:35;;;;;;;15.55;9.02;;;2.70;99.90;;;;;;5137212;27;20383;-65
2022/02/26 04:04:00;;;;;;;16.50;10.10;;;2.60;99.90;;;;;;5136836;27;20102;-65
2022/02/26 04:06:26;;;;;;;16.80;9.20;;;2.60;99.90;;;;;;5136999;27;20497;-65
2022/02/26 04:08:52;;;;;;;15.43;9.90;;;2.80;99.90;;;;;;5137198;27;20095;-66
2022/02/26 04:11:17;;;;;;;23.23;11.87;;;2.70;99.90;;;;;;5135386;27;20281;-65
2022/02/26 04:13:43;;;;;;;39.60;19.87;;;2.70;99.90;;;;;;5136703;27;20038;-64
2022/02/26 04:16:09;;;;;;;159.90;58.83;;;2.80;99.90;;;;;;5137105;27;20019;-65
2022/02/26 04:18:35;;;;;;;19.02;10.48;;;2.90;99.90;;;;;;5137607;27;20026;-66
2022/02/26 04:21:00;;;;;;;15.40;9.43;;;2.80;99.90;;;;;;5138462;27;20110;-65
2022/02/26 04:23:26;;;;;;;17.10;9.43;;;2.90;99.90;;;;;;5140176;27;20031;-64
2022/02/26 04:25:52;;;;;;;17.85;9.43;;;3.20;99.90;;;;;;5138852;27;20023;-65
2022/02/26 04:28:17;;;;;;;23.80;12.13;;;3.00;99.90;;;;;;5136598;27;20031;-65
2022/02/26 04:30:43;;;;;;;16.27;9.70;;;2.90;99.90;;;;;;5137263;27;20626;-65
2022/02/26 04:33:09;;;;;;;17.03;10.17;;;2.90;99.90;;;;;;5137542;27;20019;-65
2022/02/26 04:35:35;;;;;;;16.70;9.50;;;2.80;99.90;;;;;;5137068;27;20015;-65
2022/02/26 04:38:01;;;;;;;17.25;9.10;;;2.80;99.90;;;;;;5138079;27;20083;-64
2022/02/26 04:40:26;;;;;;;18.00;9.93;;;2.80;99.90;;;;;;5140277;27;20019;-66
2022/02/26 04:42:52;;;;;;;17.33;9.73;;;2.80;99.90;;;;;;5137904;27;20090;-65
2022/02/26 04:45:18;;;;;;;16.33;9.50;;;2.90;99.90;;;;;;5137262;27;20382;-64
2022/02/26 04:47:44;;;;;;;15.97;9.37;;;3.00;99.90;;;;;;5137248;27;20038;-64
2022/02/26 04:50:11;;;;;;;17.63;9.93;;;2.80;99.90;;;;;;5135334;27;20110;-65
2022/02/26 04:52:37;;;;;;;15.13;9.68;;;2.60;99.90;;;;;;5136338;27;20024;-65
2022/02/26 04:55:04;;;;;;;16.27;10.40;;;2.50;99.90;;;;;;5136355;27;20130;-65
2022/02/26 04:57:30;;;;;;;20.33;10.35;;;2.40;99.90;;;;;;5136451;27;20030;-65
2022/02/26 04:59:56;;;;;;;18.27;11.00;;;2.40;99.90;;;;;;5136065;27;20026;-64
2022/02/26 05:02:21;;;;;;;18.80;10.77;;;2.50;99.90;;;;;;5136000;27;20483;-65
2022/02/26 05:04:47;;;;;;;19.77;12.07;;;2.50;99.90;;;;;;5135937;27;20016;-65
2022/02/26 05:07:15;;;;;;;19.63;11.25;;;2.40;99.90;;;;;;5135381;27;20106;-65
2022/02/26 05:09:41;;;;;;;21.00;12.32;;;2.40;99.90;;;;;;5135648;27;20027;-65
2022/02/26 05:12:07;;;;;;;23.08;11.70;;;2.30;99.90;;;;;;5135753;27;20027;-66
2022/02/26 05:14:33;;;;;;;20.20;12.30;;;2.30;99.90;;;;;;5136048;27;20023;-65
2022/02/26 05:16:59;;;;;;;22.07;11.63;;;2.50;99.90;;;;;;5135960;27;20591;-64
2022/02/26 05:19:24;;;;;;;21.33;11.53;;;2.40;99.90;;;;;;5135882;27;20387;-65
2022/02/26 05:21:50;;;;;;;22.07;12.83;;;2.40;99.90;;;;;;5135756;27;20023;-67
2022/02/26 05:24:16;;;;;;;21.55;11.77;;;2.30;99.90;;;;;;5135337;27;20023;-66
2022/02/26 05:26:42;;;;;;;20.40;12.40;;;2.40;99.90;;;;;;5137115;27;20034;-67
2022/02/26 05:29:07;;;;;;;22.08;13.05;;;2.30;99.90;;;;;;5137152;27;20030;-65
2022/02/26 05:31:33;;;;;;;26.73;14.37;;;2.20;99.90;;;;;;5135727;27;20444;-63
2022/02/26 05:33:59;;;;;;;24.00;13.05;;;2.20;99.90;;;;;;5135474;27;20492;-64
2022/02/26 05:36:25;;;;;;;22.70;13.47;;;2.10;99.90;;;;;;5133868;27;20024;-65
2022/02/26 05:38:50;;;;;;;22.48;12.82;;;2.10;99.90;;;;;;5135075;27;20030;-64
2022/02/26 05:41:16;;;;;;;22.17;13.03;;;2.10;99.90;;;;;;5135653;27;20523;-65
2022/02/26 05:43:42;;;;;;;26.48;13.63;;;2.00;99.90;;;;;;5133711;27;20031;-65
2022/02/26 05:46:08;;;;;;;24.13;14.03;;;2.00;99.90;;;;;;5135038;27;20023;-64
2022/02/26 05:48:33;;;;;;;25.00;13.97;;;2.00;99.90;;;;;;5135076;27;20506;-64
2022/02/26 05:51:01;;;;;;;26.83;14.17;;;1.90;99.90;;;;;;5135022;27;20507;-65
2022/02/26 05:53:29;;;;;;;26.42;14.38;;;1.90;99.90;;;;;;5134059;27;20167;-64
2022/02/26 05:55:55;;;;;;;23.20;14.10;;;1.90;99.90;;;;;;5134920;27;20433;-65
2022/02/26 05:58:21;;;;;;;27.33;14.60;;;2.00;99.90;;;;;;5134767;27;20019;-65
2022/02/26 06:00:49;;;;;;;27.37;15.07;;;1.90;99.90;;;;;;5133511;27;20023;-65
2022/02/26 06:03:15;;;;;;;25.83;14.95;;;1.90;99.90;;;;;;5135034;27;20253;-65
2022/02/26 06:05:41;;;;;;;27.08;14.68;;;1.90;99.90;;;;;;5134765;27;20027;-66
2022/02/26 06:08:10;;;;;;;25.77;14.87;;;1.90;99.90;;;;;;5134692;27;20031;-64
2022/02/26 06:10:35;;;;;;;28.00;15.38;;;1.90;99.90;;;;;;5135914;27;20019;-66
2022/02/26 06:13:02;;;;;;;28.55;15.73;;;1.90;99.90;;;;;;5137468;27;20403;-65
2022/02/26 06:15:28;;;;;;;26.55;15.00;;;1.90;99.90;;;;;;5135114;27;20023;-66
2022/02/26 06:17:54;;;;;;;26.98;15.20;;;1.90;99.90;;;;;;5135825;27;20040;-65
2022/02/26 06:20:19;;;;;;;36.30;16.60;;;2.00;99.90;;;;;;5135510;27;20060;-65
2022/02/26 06:22:45;;;;;;;26.03;15.07;;;1.90;99.90;;;;;;5138221;27;20027;-65
2022/02/26 06:25:11;;;;;;;26.17;14.47;;;1.90;99.90;;;;;;5136587;28;20031;-65
2022/02/26 06:27:38;;;;;;;30.03;15.43;;;1.90;99.90;;;;;;5134358;27;20666;-64
2022/02/26 06:30:05;;;;;;;28.77;15.88;;;1.90;99.90;;;;;;5133031;27;20051;-64
2022/02/26 06:32:31;;;;;;;29.08;15.85;;;1.90;99.90;;;;;;5134412;27;20456;-65
2022/02/26 06:34:56;;;;;;;33.60;16.50;;;1.90;99.90;;;;;;5133058;28;20023;-64
2022/02/26 06:37:22;;;;;;;30.33;15.47;;;1.90;99.90;;;;;;5134502;28;20020;-64
2022/02/26 06:39:48;;;;;;;26.40;15.88;;;2.00;99.90;;;;;;5132875;28;20024;-63
2022/02/26 06:42:14;;;;;;;30.20;15.57;;;2.10;99.90;;;;;;5134138;28;20110;-65
2022/02/26 06:44:39;;;;;;;27.10;15.03;;;2.10;99.90;;;;;;5132885;28;20050;-66
2022/02/26 06:47:05;;;;;;;32.13;15.63;;;2.20;99.90;;;;;;5132901;28;20031;-64
2022/02/26 06:49:31;;;;;;;25.40;15.05;;;2.30;99.90;;;;;;5132817;28;20027;-65
2022/02/26 06:51:56;;;;;;;26.93;14.67;;;2.50;99.90;;;;;;5134102;28;20023;-65
2022/02/26 06:54:22;;;;;;;24.70;14.93;;;2.60;99.90;;;;;;5138109;28;20104;-66
2022/02/26 06:56:49;;;;;;;27.27;14.68;;;2.70;99.90;;;;;;5137570;28;20023;-66
2022/02/26 06:59:14;;;;;;;24.83;15.15;;;2.60;99.90;;;;;;5133294;28;20030;-65
2022/02/26 07:01:41;;;;;;;27.63;16.20;;;2.60;99.90;;;;;;5134242;27;20027;-64
2022/02/26 07:04:07;;;;;;;27.45;14.63;;;2.70;99.90;;;;;;5134008;27;20023;-65
2022/02/26 07:06:33;;;;;;;31.93;16.80;;;2.80;99.90;;;;;;5134300;28;20076;-65
2022/02/26 07:08:58;;;;;;;29.27;14.73;;;2.80;99.90;;;;;;5134313;28;20023;-64
2022/02/26 07:11:24;;;;;;;27.37;14.20;;;2.80;99.90;;;;;;5132621;28;20023;-65
2022/02/26 07:13:50;;;;;;;24.27;13.97;;;2.80;99.90;;;;;;5133756;28;20122;-65
2022/02/26 07:16:15;;;;;;;28.30;14.60;;;3.00;99.90;;;;;;5134057;28;20405;-61
2022/02/26 07:18:41;;;;;;;22.40;13.60;;;3.00;99.90;;;;;;5133798;28;20030;-62
2022/02/26 07:21:06;;;;;;;23.50;13.60;;;2.90;99.90;;;;;;5132925;28;20023;-61
2022/02/26 07:23:32;;;;;;;27.33;14.10;;;2.90;99.90;;;;;;5134988;28;20340;-61
2022/02/26 07:25:58;;;;;;;29.07;14.37;;;3.00;99.90;;;;;;5134911;28;20152;-66
2022/02/26 07:28:24;;;;;;;24.05;14.20;;;3.00;99.90;;;;;;5132879;28;20029;-65
2022/02/26 07:30:52;;;;;;;25.90;14.63;;;3.00;99.90;;;;;;5135698;27;20031;-65
2022/02/26 07:33:18;;;;;;;27.95;15.02;;;3.10;99.90;;;;;;5135859;27;20043;-66
2022/02/26 07:35:43;;;;;;;25.70;14.10;;;3.20;99.90;;;;;;5137729;27;20090;-65
2022/02/26 07:38:09;;;;;;;25.10;14.33;;;3.30;99.90;;;;;;5137946;27;20065;-65
2022/02/26 07:40:36;;;;;;;27.40;14.73;;;3.40;99.90;;;;;;5136372;27;20070;-66
2022/02/26 07:43:02;;;;;;;29.25;14.00;;;3.50;99.90;;;;;;5136211;27;20324;-64
2022/02/26 07:45:28;;;;;;;25.92;13.85;;;3.60;99.90;;;;;;5137577;27;20031;-65
2022/02/26 07:47:54;;;;;;;25.17;13.13;;;3.70;99.90;;;;;;5137159;27;20106;-65
2022/02/26 07:50:20;;;;;;;25.20;13.60;;;3.80;99.90;;;;;;5137281;27;20035;-64
2022/02/26 07:52:45;;;;;;;25.65;14.10;;;3.80;99.90;;;;;;5137198;27;20343;-65
2022/02/26 07:55:11;;;;;;;22.70;13.40;;;3.80;99.90;;;;;;5137489;27;20065;-64
2022/02/26 07:57:37;;;;;;;23.40;14.33;;;3.80;99.90;;;;;;5137263;27;20023;-67
2022/02/26 08:00:04;;;;;;;25.60;12.97;;;4.00;99.90;;;;;;5137024;27;20311;-65
2022/02/26 08:02:29;;;;;;;24.60;13.60;;;4.00;99.90;;;;;;5136838;27;20375;-70
2022/02/26 08:04:55;;;;;;;23.07;15.03;;;3.90;99.90;;;;;;5136839;27;20031;-64
2022/02/26 08:07:21;;;;;;;24.03;14.10;;;3.90;99.90;;;;;;5137360;27;20015;-67
2022/02/26 08:09:46;;;;;;;22.70;13.10;;;3.90;99.90;;;;;;5135936;27;20115;-66
2022/02/26 08:12:13;;;;;;;24.17;13.37;;;4.30;99.90;;;;;;5137135;27;20110;-68
2022/02/26 08:14:39;;;;;;;23.48;13.77;;;4.30;99.90;;;;;;5148397;22;20040;-67
2022/02/26 08:17:05;;;;;;;26.92;13.50;;;4.20;99.90;;;;;;5118873;28;20098;-67
2022/02/26 08:19:31;;;;;;;24.20;13.13;;;4.10;99.90;;;;;;5098043;28;20069;-67
2022/02/26 08:21:57;;;;;;;30.63;16.00;;;4.20;99.90;;;;;;5114359;28;20499;-65
2022/02/26 08:24:22;;;;;;;21.90;12.57;;;4.30;99.90;;;;;;5115992;28;20066;-65
2022/02/26 08:26:48;;;;;;;22.63;13.83;;;4.40;99.90;;;;;;5115920;28;20084;-65
2022/02/26 08:29:15;;;;;;;25.40;14.13;;;4.60;99.90;;;;;;5116060;28;20027;-66
2022/02/26 08:31:41;;;;;;;21.17;12.90;;;4.80;99.90;;;;;;5116265;28;20286;-66
2022/02/26 08:34:07;;;;;;;20.23;12.63;;;4.90;99.90;;;;;;5114713;28;20379;-66
2022/02/26 08:36:33;;;;;;;26.13;13.10;;;5.00;99.90;;;;;;5115521;28;20019;-65
2022/02/26 08:38:59;;;;;;;19.38;12.73;;;5.10;99.90;;;;;;5115371;28;20475;-65
2022/02/26 08:41:25;;;;;;;22.88;14.48;;;5.40;99.90;;;;;;5096358;28;20077;-65
2022/02/26 08:43:50;;;;;;;21.00;11.77;;;5.50;99.90;;;;;;5115772;28;20026;-67
2022/02/26 08:46:16;;;;;;;21.10;12.33;;;5.50;99.90;;;;;;5116235;28;20031;-67
2022/02/26 08:48:42;;;;;;;21.90;11.65;;;5.50;99.90;;;;;;5114059;28;20039;-67
2022/02/26 08:51:08;;;;;;;16.53;7.03;;;5.40;99.90;;;;;;5115650;28;20037;-67
2022/02/26 08:53:34;;;;;;;21.50;8.50;;;5.40;99.90;;;;;;5097256;28;20361;-68
2022/02/26 08:55:59;;;;;;;22.10;9.53;;;5.30;99.90;;;;;;5115701;28;20080;-68
2022/02/26 08:58:25;;;;;;;19.17;9.70;;;5.20;99.90;;;;;;5115723;28;20813;-67
2022/02/26 09:00:51;;;;;;;18.20;9.77;;;5.10;99.90;;;;;;5096809;28;20024;-67
2022/02/26 09:03:17;;;;;;;23.70;10.25;;;5.20;99.90;;;;;;5113628;28;20360;-67
2022/02/26 09:05:43;;;;;;;14.98;8.13;;;5.30;99.90;;;;;;5113874;28;20063;-67
2022/02/26 09:08:09;;;;;;;16.30;8.00;;;5.60;99.90;;;;;;5115223;28;20024;-68
2022/02/26 09:10:35;;;;;;;20.80;6.78;;;5.70;99.90;;;;;;5115064;28;20391;-68
2022/02/26 09:13:01;;;;;;;14.35;8.00;;;5.80;99.90;;;;;;5096673;28;20023;-67
2022/02/26 09:15:28;;;;;;;18.42;6.63;;;5.90;99.90;;;;;;5115192;28;20029;-69
2022/02/26 09:17:55;;;;;;;14.45;6.28;;;6.00;99.90;;;;;;5114816;28;20043;-68
2022/02/26 09:20:21;;;;;;;18.45;7.50;;;6.00;99.90;;;;;;5116259;28;20023;-67
2022/02/26 09:22:47;;;;;;;19.90;6.93;;;6.20;99.90;;;;;;5116051;28;20153;-67
2022/02/26 09:25:13;;;;;;;20.65;6.32;;;6.20;99.90;;;;;;5115391;28;20059;-68
2022/02/26 09:27:40;;;;;;;12.75;6.10;;;6.30;99.90;;;;;;5097484;28;20027;-66
2022/02/26 09:30:07;;;;;;;19.17;5.88;;;6.40;99.90;;;;;;5097038;28;20369;-67
2022/02/26 09:32:33;;;;;;;14.02;5.40;;;7.20;99.90;;;;;;5115408;28;20102;-67
2022/02/26 09:34:59;;;;;;;21.10;6.07;;;8.40;99.90;;;;;;5097648;28;20126;-68
2022/02/26 09:37:25;;;;;;;15.00;5.90;;;10.00;99.90;;;;;;5114878;28;20062;-67
2022/02/26 09:39:53;;;;;;;22.17;6.30;;;11.40;97.80;;;;;;5114848;28;20144;-68
2022/02/26 09:42:22;;;;;;;12.90;5.00;;;11.80;96.10;;;;;;5114656;28;20092;-67
2022/02/26 09:44:49;;;;;;;10.88;4.85;;;12.00;94.70;;;;;;5096018;28;20437;-67
2022/02/26 09:47:14;;;;;;;10.75;4.82;;;12.20;94.40;;;;;;5096030;28;20043;-68
2022/02/26 09:49:40;;;;;;;12.98;4.95;;;12.80;91.90;;;;;;5096280;28;20019;-67
2022/02/26 09:52:08;;;;;;;17.00;4.28;;;13.00;91.70;;;;;;5096036;28;20032;-66
2022/02/26 09:54:34;;;;;;;10.63;4.20;;;14.00;88.70;;;;;;5095935;28;20027;-65
2022/02/26 09:56:59;;;;;;;8.98;3.78;;;14.90;83.80;;;;;;5114446;28;20024;-68
2022/02/26 09:59:25;;;;;;;11.30;4.35;;;16.30;76.00;;;;;;5114571;28;20028;-69
2022/02/26 10:01:58;;;;;;;11.85;3.17;;;15.50;74.50;;;;;;5114403;28;20023;-68
2022/02/26 10:04:25;;;;;;;13.20;4.45;;;14.90;72.20;;;;;;5114533;28;20482;-68
2022/02/26 10:06:50;;;;;;;;;;;14.70;74.30;;;;;;5114809;28;20070;-68
2022/02/26 10:09:16;;;;;;;14.70;4.10;;;15.60;70.80;;;;;;5096550;28;20351;-66
2022/02/26 10:11:42;;;;;;;12.52;3.42;;;16.40;66.20;;;;;;5114475;28;20467;-66
2022/02/26 10:14:15;;;;;;;11.45;3.33;;;17.60;62.20;;;;;;5113434;28;20403;-65
2022/02/26 10:16:49;;;;;;;10.63;3.50;;;19.00;60.10;;;;;;5095843;28;20114;-67
2022/02/26 10:19:35;;;;;;;11.95;3.47;;;19.50;57.60;;;;;;5095553;28;20380;-67
2022/02/26 10:22:07;;;;;;;8.60;3.08;;;21.20;54.90;;;;;;5094946;28;20192;-66
2022/02/26 10:24:34;;;;;;;7.43;2.88;;;21.00;51.50;;;;;;5112067;28;20027;-67
2022/02/26 10:27:06;;;;;;;12.75;3.47;;;20.10;51.50;;;;;;5113715;28;20384;-67
2022/02/26 10:29:37;;;;;;;6.93;2.40;;;19.30;52.30;;;;;;5114554;28;20015;-67
2022/02/26 10:32:05;;;;;;;13.05;2.95;;;18.30;50.30;;;;;;5113845;28;20016;-67
2022/02/26 10:34:40;;;;;;;8.30;2.95;;;17.50;52.80;;;;;;5114458;28;20030;-67
2022/02/26 10:37:15;;;;;;;9.32;2.50;;;16.20;55.60;;;;;;5114865;28;20024;-67
2022/02/26 10:39:43;;;;;;;7.82;2.25;;;15.00;56.50;;;;;;5114472;28;20020;-67
2022/02/26 10:42:16;;;;;;;10.05;2.85;;;14.00;58.00;;;;;;5114646;28;20020;-68
2022/02/26 10:44:42;;;;;;;9.80;3.20;;;14.80;58.90;;;;;;5097184;28;20024;-66
2022/02/26 10:47:17;;;;;;;9.73;3.13;;;15.50;60.00;;;;;;5097163;28;20422;-68
2022/02/26 10:49:45;;;;;;;9.32;2.65;;;16.40;58.50;;;;;;5115309;28;20030;-66
2022/02/26 10:52:12;;;;;;;12.98;3.25;;;16.00;57.60;;;;;;5114533;28;20023;-66
2022/02/26 10:54:39;;;;;;;8.95;3.38;;;14.20;59.80;;;;;;5114497;28;20033;-66
2022/02/26 10:57:06;;;;;;;11.10;3.58;;;13.30;63.50;;;;;;5095842;28;20510;-67
2022/02/26 10:59:34;;;;;;;11.48;3.03;;;14.00;63.50;;;;;;5114712;28;20027;-67
2022/02/26 11:02:01;;;;;;;9.25;3.05;;;14.50;62.00;;;;;;5114927;28;20039;-68
2022/02/26 11:04:27;;;;;;;8.77;2.95;;;15.50;60.80;;;;;;5115809;28;20084;-67
2022/02/26 11:06:53;;;;;;;9.23;2.97;;;16.90;58.50;;;;;;5100156;28;20027;-67
2022/02/26 11:09:20;;;;;;;9.55;2.95;;;17.60;55.10;;;;;;5118840;28;20428;-67
2022/02/26 11:11:50;;;;;;;11.18;3.05;;;16.80;56.50;;;;;;5103430;28;20024;-68
2022/02/26 11:14:20;;;;;;;10.48;3.35;;;16.00;57.40;;;;;;5122566;28;20031;-66
2022/02/26 11:16:49;;;;;;;8.60;2.97;;;14.80;58.30;;;;;;5123521;28;20400;-66
2022/02/26 11:19:19;;;;;;;12.02;3.55;;;13.40;61.90;;;;;;5104098;28;20067;-66
2022/02/26 11:21:47;;;;;;;12.80;3.42;;;12.50;65.20;;;;;;5123655;28;20027;-67
2022/02/26 11:24:17;;;;;;;8.32;3.22;;;11.80;67.90;;;;;;5124261;28;20024;-67
2022/02/26 11:26:44;;;;;;;13.23;3.15;;;11.10;70.60;;;;;;5123572;28;20073;-68
2022/02/26 11:29:11;;;;;;;12.23;3.28;;;10.30;73.40;;;;;;5105625;28;20030;-67
2022/02/26 11:32:01;;;;;;;12.25;3.22;;;9.80;75.10;;;;;;5123701;28;20448;-67
2022/02/26 11:34:27;;;;;;;11.80;3.55;;;9.40;77.30;;;;;;5118751;28;20016;-67
2022/02/26 11:37:03;;;;;;;;;;;9.30;78.50;;;;;;5119594;28;20020;-66
2022/02/26 11:39:30;;;;;;;10.18;2.90;;;9.30;79.10;;;;;;5121244;28;19911;-67
2022/02/26 11:42:18;;;;;;;9.75;3.10;;;9.30;79.40;;;;;;5121539;28;20072;-67
2022/02/26 11:44:46;;;;;;;9.93;2.47;;;9.20;80.70;;;;;;5102753;28;20471;-67
2022/02/26 11:47:18;;;;;;;13.88;2.55;;;9.10;81.50;;;;;;5101250;28;20479;-67
2022/02/26 11:50:00;;;;;;;12.30;2.72;;;8.90;82.10;;;;;;5118953;28;20436;-67
2022/02/26 11:52:41;;;;;;;9.10;2.20;;;8.70;83.20;;;;;;5101116;28;20413;-66
2022/02/26 11:55:28;;;;;;;11.07;2.83;;;8.60;82.90;;;;;;5118407;28;20099;-67
2022/02/26 11:57:57;;;;;;;9.52;2.35;;;8.40;83.00;;;;;;5118041;28;20023;-66
2022/02/26 12:00:24;;;;;;;8.57;1.70;;;8.30;83.30;;;;;;5117045;28;20426;-66
2022/02/26 12:03:20;;;;;;;8.00;2.20;;;8.10;79.20;;;;;;5117657;28;20020;-66
2022/02/26 12:05:49;;;;;;;6.80;1.92;;;8.10;80.40;;;;;;5117154;28;20084;-66
2022/02/26 12:08:19;;;;;;;8.73;2.00;;;8.20;81.40;;;;;;5116769;28;20107;-65
2022/02/26 12:11:05;;;;;;;5.95;1.88;;;8.20;79.30;;;;;;5117217;28;20107;-65
2022/02/26 12:13:37;;;;;;;8.80;1.98;;;8.30;76.90;;;;;;5116640;28;20034;-66
2022/02/26 12:16:19;;;;;;;6.30;1.55;;;8.30;75.90;;;;;;5116415;28;20012;-67
2022/02/26 12:18:47;;;;;;;8.65;2.00;;;8.20;76.60;;;;;;5098968;28;20047;-67
2022/02/26 12:21:16;;;;;;;7.20;2.03;;;8.00;76.60;;;;;;5117694;28;20024;-66
2022/02/26 12:24:00;;;;;;;8.63;1.88;;;7.90;77.90;;;;;;5100101;28;20147;-69
2022/02/26 12:26:43;;;;;;;5.35;2.10;;;7.90;77.80;;;;;;5099264;28;20024;-70
2022/02/26 12:29:09;;;;;;;5.32;1.90;;;8.00;77.80;;;;;;5099525;28;20023;-70
2022/02/26 12:31:52;;;;;;;7.38;2.08;;;8.10;78.20;;;;;;5116903;28;20388;-65
2022/02/26 12:34:19;;;;;;;8.50;2.67;;;8.20;77.80;;;;;;5116330;28;20063;-64
2022/02/26 12:37:15;;;;;;;9.70;2.75;;;8.30;79.10;;;;;;5098241;28;20489;-64
2022/02/26 12:39:58;;;;;;;7.47;1.90;;;8.50;79.00;;;;;;5116929;28;20042;-64
2022/02/26 12:42:32;;;;;;;9.38;2.40;;;8.50;79.10;;;;;;5116784;28;20112;-65
2022/02/26 12:45:00;;;;;;;7.07;2.10;;;8.50;78.80;;;;;;5116371;28;20019;-65
2022/02/26 12:47:27;;;;;;;5.80;2.63;;;8.60;78.80;;;;;;5116670;28;20023;-64
2022/02/26 12:49:53;;;;;;;8.35;2.22;;;8.60;77.70;;;;;;5097890;28;20365;-64
2022/02/26 12:52:19;;;;;;;10.18;2.05;;;8.70;77.80;;;;;;5097259;28;20020;-64